Time;durP1;ratioP1;P1;durP2;ratioP2;P2;SDS_P1;SDS_P2;PMS_P1;PMS_P2;Temp;Humidity;BMP_temperature;BMP_pressure;BME280_temperature;BME280_humidity;BME280_pressure;Samples;Min_cycle;Max_cycle;Signal;HPM_P1;HPM_P2
2022/07/31 00:00:14;;;;;;;6.53;2.50;;;;;;;17.07;80.35;101882.25;5115008;27;20036;-74
2022/07/31 00:02:39;;;;;;;7.15;2.47;;;;;;;17.05;80.66;101881.56;5115039;28;20123;-74
2022/07/31 00:05:05;;;;;;;5.25;2.35;;;;;;;17.05;81.34;101879.72;5114955;28;20070;-75
2022/07/31 00:07:30;;;;;;;6.63;3.13;;;;;;;17.02;81.47;101874.66;5115179;28;20027;-73
2022/07/31 00:09:56;;;;;;;6.18;3.00;;;;;;;17.00;81.41;101871.25;5115688;27;20032;-73
2022/07/31 00:12:21;;;;;;;7.32;2.80;;;;;;;16.96;82.52;101869.03;5114697;28;20031;-73
2022/07/31 00:14:47;;;;;;;4.50;2.42;;;;;;;16.92;82.57;101863.97;5112805;28;20044;-76
2022/07/31 00:17:13;;;;;;;7.75;3.00;;;;;;;16.89;83.18;101869.66;5114749;28;20036;-73
2022/07/31 00:19:38;;;;;;;6.47;2.70;;;;;;;16.85;84.05;101862.88;5114749;28;20050;-73
2022/07/31 00:22:04;;;;;;;5.20;2.40;;;;;;;16.82;84.10;101862.34;5113597;28;20073;-73
2022/07/31 00:24:29;;;;;;;3.08;2.63;;;;;;;16.77;83.85;101859.31;5114640;28;20077;-73
2022/07/31 00:26:55;;;;;;;5.72;2.63;;;;;;;16.71;84.32;101858.06;5114548;28;20031;-73
2022/07/31 00:29:21;;;;;;;4.50;2.50;;;;;;;16.68;85.06;101858.38;5114440;28;20024;-73
2022/07/31 00:31:46;;;;;;;5.43;2.58;;;;;;;16.62;85.20;101862.53;5114977;28;20461;-73
2022/07/31 00:34:11;;;;;;;6.53;2.60;;;;;;;16.57;85.08;101863.00;5114377;28;20537;-73
2022/07/31 00:36:37;;;;;;;8.10;3.00;;;;;;;16.55;86.69;101866.81;5114401;28;20042;-73
2022/07/31 00:39:02;;;;;;;4.20;2.47;;;;;;;16.52;87.25;101857.22;5114376;28;20063;-81
2022/07/31 00:41:38;;;;;;;5.35;2.67;;;;;;;16.50;87.70;101864.59;5114072;28;20487;-75
2022/07/31 00:44:04;;;;;;;5.65;3.05;;;;;;;16.48;87.79;101855.88;5114306;27;20035;-75
2022/07/31 00:46:29;;;;;;;8.18;2.97;;;;;;;16.49;87.87;101851.31;5114065;28;20427;-73
2022/07/31 00:48:55;;;;;;;7.43;3.10;;;;;;;16.48;89.24;101852.31;5114231;28;20063;-73
2022/07/31 00:51:20;;;;;;;8.02;3.17;;;;;;;16.48;90.02;101845.13;5114318;27;20032;-72
2022/07/31 00:53:45;;;;;;;4.43;2.78;;;;;;;16.48;90.51;101837.06;5114328;28;20059;-72
2022/07/31 00:56:11;;;;;;;6.43;2.80;;;;;;;16.47;90.75;101834.53;5113935;28;20096;-72
2022/07/31 00:58:36;;;;;;;8.57;3.00;;;;;;;16.47;91.08;101827.31;5113997;28;20039;-73
2022/07/31 01:01:01;;;;;;;5.78;2.78;;;;;;;16.48;91.17;101823.63;5114686;28;20032;-72
2022/07/31 01:03:27;;;;;;;10.07;2.95;;;;;;;16.50;91.48;101823.47;5114107;28;20038;-72
2022/07/31 01:05:52;;;;;;;8.52;2.97;;;;;;;16.54;92.63;101825.69;5114178;28;20043;-73
2022/07/31 01:08:18;;;;;;;5.95;2.80;;;;;;;16.55;93.22;101830.03;5114132;28;20028;-73
2022/07/31 01:10:48;;;;;;;5.22;2.92;;;;;;;16.59;93.23;101835.97;5114423;28;20105;-74
2022/07/31 01:13:22;;;;;;;4.78;3.00;;;;;;;16.62;94.27;101826.78;5113517;28;20032;-73
2022/07/31 01:15:49;;;;;;;6.05;2.85;;;;;;;16.65;95.36;101826.47;5113464;28;20047;-73
2022/07/31 01:18:16;;;;;;;4.85;2.90;;;;;;;16.68;96.43;101835.03;5113744;28;20077;-73
2022/07/31 01:20:43;;;;;;;12.73;3.28;;;;;;;16.72;96.84;101835.59;5113830;28;20027;-73
2022/07/31 01:23:30;;;;;;;6.53;2.88;;;;;;;16.79;97.14;101827.72;5113735;28;20047;-81
2022/07/31 01:26:01;;;;;;;11.90;3.03;;;;;;;16.86;99.34;101832.31;5113791;28;20031;-74
2022/07/31 01:28:47;;;;;;;11.30;3.45;;;;;;;16.96;100.00;101836.78;5113942;28;20063;-73
2022/07/31 01:31:18;;;;;;;9.00;2.92;;;;;;;17.04;100.00;101843.06;5113560;28;20078;-74
2022/07/31 01:34:13;;;;;;;5.68;2.70;;;;;;;17.12;100.00;101833.38;5117209;28;20024;-73
2022/07/31 01:36:43;;;;;;;6.53;3.05;;;;;;;17.17;100.00;101831.91;5099076;28;20104;-73
2022/07/31 01:39:08;;;;;;;5.97;3.20;;;;;;;17.20;100.00;101830.75;5116624;28;20036;-72
2022/07/31 01:41:41;;;;;;;11.95;3.00;;;;;;;17.20;100.00;101817.31;5118016;27;20605;-72
2022/07/31 01:44:09;;;;;;;11.13;3.65;;;;;;;17.23;100.00;101819.69;5117807;28;20077;-73
2022/07/31 01:46:37;;;;;;;8.80;3.25;;;;;;;17.22;100.00;101820.66;5117279;28;20042;-73
2022/07/31 01:49:03;;;;;;;8.52;3.40;;;;;;;17.21;100.00;101824.34;5117981;28;20054;-72
2022/07/31 01:51:29;;;;;;;10.48;3.33;;;;;;;17.20;100.00;101817.31;5116274;28;20036;-73
2022/07/31 01:53:55;;;;;;;7.07;2.72;;;;;;;17.15;100.00;101807.00;5117502;28;20036;-73
2022/07/31 01:56:22;;;;;;;7.53;3.10;;;;;;;17.14;100.00;101808.03;5117510;28;20036;-73
2022/07/31 01:58:49;;;;;;;8.52;3.47;;;;;;;17.14;100.00;101801.78;5118024;28;20043;-73
2022/07/31 02:01:15;;;;;;;10.88;4.03;;;;;;;17.17;100.00;101802.31;5117406;27;20031;-78
2022/07/31 02:03:43;;;;;;;8.93;3.40;;;;;;;17.20;100.00;101799.31;5117442;28;20072;-74
2022/07/31 02:06:09;;;;;;;8.10;3.10;;;;;;;17.23;100.00;101798.16;5117472;28;20040;-74
2022/07/31 02:08:35;;;;;;;9.45;3.13;;;;;;;17.26;100.00;101792.47;5117025;28;20369;-74
2022/07/31 02:11:02;;;;;;;4.65;2.70;;;;;;;17.30;100.00;101793.81;5117578;28;20488;-73
2022/07/31 02:13:28;;;;;;;7.18;2.92;;;;;;;17.33;100.00;101798.91;5116793;28;20119;-73
2022/07/31 02:15:56;;;;;;;4.15;2.72;;;;;;;17.34;100.00;101792.50;5117967;28;20093;-74
2022/07/31 02:18:22;;;;;;;9.75;2.83;;;;;;;17.36;100.00;101790.50;5117138;28;20111;-74
2022/07/31 02:20:50;;;;;;;6.95;2.97;;;;;;;17.37;100.00;101794.03;5117421;28;20047;-73
2022/07/31 02:23:16;;;;;;;7.38;2.70;;;;;;;17.41;100.00;101792.72;5116914;28;20031;-73
2022/07/31 02:25:43;;;;;;;5.78;2.83;;;;;;;17.44;100.00;101789.69;5116956;28;20063;-74
2022/07/31 02:28:14;;;;;;;8.00;2.70;;;;;;;17.46;100.00;101787.66;5117378;28;20109;-73
2022/07/31 02:30:42;;;;;;;7.97;2.50;;;;;;;17.48;100.00;101785.69;5117262;28;20106;-73
2022/07/31 02:33:12;;;;;;;6.97;2.33;;;;;;;17.50;100.00;101783.66;5116817;28;20400;-74
2022/07/31 02:35:39;;;;;;;6.83;2.53;;;;;;;17.49;100.00;101776.59;5117022;28;20096;-74
2022/07/31 02:38:07;;;;;;;7.82;2.50;;;;;;;17.51;100.00;101773.72;5116768;28;20118;-73
2022/07/31 02:40:34;;;;;;;7.82;2.78;;;;;;;17.53;100.00;101787.88;5116922;28;20028;-75
2022/07/31 02:42:59;;;;;;;2.92;1.80;;;;;;;17.53;100.00;101788.72;5116723;28;20148;-73
2022/07/31 02:45:25;;;;;;;4.40;2.50;;;;;;;17.55;100.00;101791.25;5115545;28;20496;-74
2022/07/31 02:47:50;;;;;;;9.57;3.10;;;;;;;17.57;100.00;101782.00;5115405;28;20028;-73
2022/07/31 02:50:17;;;;;;;6.15;2.45;;;;;;;17.58;100.00;101775.59;5116835;28;20035;-73
2022/07/31 02:52:43;;;;;;;5.03;2.50;;;;;;;17.57;100.00;101775.78;5116986;28;20035;-73
2022/07/31 02:55:09;;;;;;;5.75;2.90;;;;;;;17.56;100.00;101766.03;5116310;28;20457;-74
2022/07/31 02:57:35;;;;;;;5.95;2.55;;;;;;;17.55;100.00;101773.25;5116406;28;20097;-74
2022/07/31 03:00:01;;;;;;;5.72;2.28;;;;;;;17.53;100.00;101767.19;5116411;28;20033;-74
2022/07/31 03:02:26;;;;;;;5.45;2.80;;;;;;;17.50;100.00;101762.13;5116277;28;20039;-74
2022/07/31 03:04:52;;;;;;;7.22;3.10;;;;;;;17.49;100.00;101754.22;5098450;28;20039;-73
2022/07/31 03:07:17;;;;;;;5.53;2.30;;;;;;;17.47;100.00;101756.25;5115922;28;20089;-73
2022/07/31 03:09:43;;;;;;;7.65;2.53;;;;;;;17.45;100.00;101753.69;5115900;28;20035;-73
2022/07/31 03:12:08;;;;;;;10.90;2.80;;;;;;;17.45;100.00;101756.38;5116194;28;20495;-73
2022/07/31 03:14:34;;;;;;;6.22;2.70;;;;;;;17.47;100.00;101765.16;5115898;28;20035;-73
2022/07/31 03:17:00;;;;;;;6.90;3.00;;;;;;;17.48;100.00;101760.59;5116668;28;20035;-73
2022/07/31 03:19:27;;;;;;;5.65;2.85;;;;;;;17.50;100.00;101759.44;5116493;28;20035;-75
2022/07/31 03:21:53;;;;;;;4.22;2.80;;;;;;;17.51;100.00;101762.97;5116046;28;20043;-74
2022/07/31 03:24:19;;;;;;;8.65;3.20;;;;;;;17.47;100.00;101750.88;5116069;28;20060;-74
2022/07/31 03:26:45;;;;;;;6.35;3.05;;;;;;;17.42;100.00;101748.63;5115531;28;20089;-74
2022/07/31 03:29:10;;;;;;;5.38;2.92;;;;;;;17.40;100.00;101756.88;5116304;28;20464;-74
2022/07/31 03:31:35;;;;;;;7.00;3.17;;;;;;;17.40;100.00;101754.19;5115783;28;20102;-74
2022/07/31 03:34:01;;;;;;;6.05;3.40;;;;;;;17.37;100.00;101759.06;5115959;27;20032;-74
2022/07/31 03:36:26;;;;;;;4.97;3.35;;;;;;;17.35;100.00;101759.22;5115942;28;20484;-74
2022/07/31 03:38:53;;;;;;;8.95;3.53;;;;;;;17.34;100.00;101756.69;5116237;28;20028;-74
2022/07/31 03:41:18;;;;;;;7.38;4.03;;;;;;;17.33;100.00;101755.00;5116368;28;20137;-74
2022/07/31 03:43:45;;;;;;;6.50;3.00;;;;;;;17.32;100.00;101759.53;5115498;28;20063;-74
2022/07/31 03:46:12;;;;;;;8.65;3.50;;;;;;;17.30;100.00;101756.16;5115768;28;20039;-74
2022/07/31 03:48:37;;;;;;;11.80;3.40;;;;;;;17.30;100.00;101741.88;5115094;28;20059;-74
2022/07/31 03:51:03;;;;;;;8.27;3.50;;;;;;;17.29;100.00;101738.34;5115192;28;20063;-74
2022/07/31 03:53:30;;;;;;;7.07;3.90;;;;;;;17.28;100.00;101747.41;5115590;28;20039;-74
2022/07/31 03:55:56;;;;;;;7.28;3.70;;;;;;;17.28;100.00;101742.03;5115574;28;20032;-74
2022/07/31 03:58:22;;;;;;;9.30;4.10;;;;;;;17.28;100.00;101734.81;5115165;28;20043;-73
2022/07/31 04:00:48;;;;;;;10.98;4.13;;;;;;;17.30;100.00;101731.94;5115134;28;20028;-74
2022/07/31 04:03:14;;;;;;;6.80;4.10;;;;;;;17.32;100.00;101731.81;5115216;27;20077;-74
2022/07/31 04:05:40;;;;;;;11.02;4.65;;;;;;;17.32;100.00;101739.88;5114276;28;20036;-74
2022/07/31 04:08:07;;;;;;;8.32;4.50;;;;;;;17.30;100.00;101740.00;5115319;28;20034;-73
2022/07/31 04:10:34;;;;;;;10.18;5.15;;;;;;;17.31;100.00;101732.81;5115005;28;20496;-74
2022/07/31 04:13:04;;;;;;;12.50;4.82;;;;;;;17.30;100.00;101737.31;5114968;28;20031;-73
2022/07/31 04:15:30;;;;;;;11.63;4.82;;;;;;;17.30;100.00;101729.25;5114993;28;20103;-73
2022/07/31 04:17:56;;;;;;;9.25;4.50;;;;;;;17.31;100.00;101732.81;5115364;28;20032;-74
2022/07/31 04:20:21;;;;;;;10.32;4.60;;;;;;;17.31;100.00;101727.44;5115003;28;20027;-73
2022/07/31 04:22:47;;;;;;;9.95;4.90;;;;;;;17.31;100.00;101736.34;5115143;28;20098;-73
2022/07/31 04:25:13;;;;;;;10.85;5.13;;;;;;;17.32;100.00;101724.56;5114778;28;20059;-73
2022/07/31 04:27:39;;;;;;;10.07;5.32;;;;;;;17.30;100.00;101726.56;5115117;28;20028;-73
2022/07/31 04:30:05;;;;;;;11.52;5.70;;;;;;;17.32;100.00;101731.81;5114748;28;20058;-73
2022/07/31 04:32:30;;;;;;;13.52;5.43;;;;;;;17.32;100.00;101729.13;5113615;28;20102;-73
2022/07/31 04:34:55;;;;;;;9.73;5.50;;;;;;;17.33;100.00;101731.66;5114399;28;20031;-73
2022/07/31 04:37:21;;;;;;;11.32;5.50;;;;;;;17.35;100.00;101732.31;5114472;28;20461;-75
2022/07/31 04:39:46;;;;;;;11.77;5.50;;;;;;;17.40;100.00;101731.84;5114225;28;20038;-73
2022/07/31 04:42:12;;;;;;;14.00;5.35;;;;;;;17.42;100.00;101725.28;5114521;28;20036;-74
2022/07/31 04:44:37;;;;;;;13.82;5.75;;;;;;;17.45;100.00;101718.72;5114286;28;20110;-73
2022/07/31 04:47:04;;;;;;;15.68;6.35;;;;;;;17.49;100.00;101719.25;5114301;28;20047;-74
2022/07/31 04:49:31;;;;;;;13.55;6.05;;;;;;;17.51;100.00;101715.41;5114302;28;20027;-74
2022/07/31 04:51:57;;;;;;;13.38;5.95;;;;;;;17.55;100.00;101722.13;5114132;28;20023;-74
2022/07/31 04:54:23;;;;;;;12.43;5.80;;;;;;;17.58;100.00;101716.41;5114381;28;20110;-74
2022/07/31 04:56:48;;;;;;;18.30;7.00;;;;;;;17.59;100.00;101711.88;5114338;28;20114;-75
2022/07/31 04:59:16;;;;;;;21.15;7.28;;;;;;;17.63;100.00;101714.09;5112783;28;20024;-74
2022/07/31 05:01:42;;;;;;;19.08;6.15;;;;;;;17.67;100.00;101716.44;5114773;28;20039;-74
2022/07/31 05:04:08;;;;;;;15.38;7.10;;;;;;;17.71;100.00;101715.94;5114277;28;20042;-74
2022/07/31 05:06:44;;;;;;;18.02;7.50;;;;;;;17.75;100.00;101711.06;5113708;28;20039;-73
2022/07/31 05:09:12;;;;;;;18.33;7.03;;;;;;;17.78;100.00;101708.06;5113807;28;20028;-74
2022/07/31 05:11:38;;;;;;;16.85;7.05;;;;;;;17.82;100.00;101709.41;5114319;28;20028;-73
2022/07/31 05:14:07;;;;;;;16.33;7.00;;;;;;;17.85;100.00;101711.75;5113746;28;20104;-73
2022/07/31 05:16:33;;;;;;;16.23;7.38;;;;;;;17.88;100.00;101711.44;5114888;28;20047;-75
2022/07/31 05:19:00;;;;;;;17.33;7.18;;;;;;;17.90;100.00;101713.97;5113771;28;20530;-73
2022/07/31 05:21:26;;;;;;;24.52;7.72;;;;;;;17.92;100.00;101720.06;5113797;28;20027;-74
2022/07/31 05:23:52;;;;;;;17.17;7.40;;;;;;;17.94;100.00;101716.19;5113656;28;20035;-74
2022/07/31 05:26:18;;;;;;;17.42;7.50;;;;;;;17.93;100.00;101709.13;5113474;28;20523;-73
2022/07/31 05:28:44;;;;;;;16.88;7.75;;;;;;;17.93;100.00;101709.13;5112428;28;20035;-74
2022/07/31 05:31:10;;;;;;;22.55;7.97;;;;;;;17.95;100.00;101706.25;5114464;28;20031;-74
2022/07/31 05:33:35;;;;;;;18.35;7.78;;;;;;;17.96;100.00;101702.56;5113682;28;20388;-73
2022/07/31 05:36:01;;;;;;;14.30;6.68;;;;;;;17.99;100.00;101713.00;5114012;28;20093;-74
2022/07/31 05:38:27;;;;;;;14.77;7.15;;;;;;;18.02;100.00;101709.13;5113684;28;20024;-73
2022/07/31 05:40:53;;;;;;;20.45;7.88;;;;;;;18.07;100.00;101710.31;5113680;28;20066;-74
2022/07/31 05:43:19;;;;;;;19.88;7.35;;;;;;;18.13;100.00;101706.09;5113634;28;20432;-74
2022/07/31 05:45:45;;;;;;;20.75;7.47;;;;;;;18.20;100.00;101707.13;5113954;28;20116;-74
2022/07/31 05:48:15;;;;;;;16.23;7.82;;;;;;;18.25;100.00;101696.66;5114220;28;20032;-74
2022/07/31 05:50:45;;;;;;;18.73;7.25;;;;;;;18.32;100.00;101697.69;5113609;28;20034;-73
2022/07/31 05:53:13;;;;;;;22.65;8.05;;;;;;;18.36;100.00;101702.72;5113580;28;20112;-73
2022/07/31 05:55:43;;;;;;;19.33;7.50;;;;;;;18.43;100.00;101696.50;5113223;28;20023;-73
2022/07/31 05:58:09;;;;;;;22.15;7.68;;;;;;;18.51;100.00;101703.72;5113448;28;20181;-73
2022/07/31 06:00:35;;;;;;;21.88;7.88;;;;;;;18.57;100.00;101697.66;5113912;28;20031;-74
2022/07/31 06:03:01;;;;;;;18.65;7.13;;;;;;;18.66;100.00;101690.38;5113931;28;20110;-74
2022/07/31 06:05:27;;;;;;;15.95;7.15;;;;;;;18.68;100.00;101694.59;5113377;28;20124;-73
2022/07/31 06:07:53;;;;;;;15.18;6.72;;;;;;;18.75;100.00;101700.16;5112098;28;20027;-73
2022/07/31 06:10:18;;;;;;;16.67;6.97;;;;;;;18.79;100.00;101700.63;5113074;28;20043;-73
2022/07/31 06:12:44;;;;;;;21.08;7.18;;;;;;;18.77;100.00;101702.69;5113376;28;20055;-73
2022/07/31 06:15:09;;;;;;;20.35;7.38;;;;;;;18.77;100.00;101705.38;5113165;28;20047;-73
2022/07/31 06:17:38;;;;;;;24.67;8.07;;;;;;;18.74;100.00;101695.78;5113296;28;20373;-73
2022/07/31 06:20:03;;;;;;;23.20;7.85;;;;;;;18.70;100.00;101699.81;5116944;28;20043;-74
2022/07/31 06:22:29;;;;;;;23.25;7.70;;;;;;;18.70;100.00;101701.69;5117173;28;20358;-73
2022/07/31 06:24:55;;;;;;;27.05;8.10;;;;;;;18.67;100.00;101690.25;5117084;28;20031;-74
2022/07/31 06:27:21;;;;;;;23.33;7.95;;;;;;;18.71;100.00;101697.97;5117099;28;20027;-72
2022/07/31 06:29:46;;;;;;;19.25;8.40;;;;;;;18.77;100.00;101698.13;5116953;28;20034;-74
2022/07/31 06:32:12;;;;;;;19.33;8.45;;;;;;;18.80;100.00;101703.16;5116853;28;20040;-73
2022/07/31 06:34:37;;;;;;;13.38;7.68;;;;;;;18.83;100.00;101700.13;5116743;28;20115;-74
2022/07/31 06:37:02;;;;;;;19.05;8.40;;;;;;;18.87;100.00;101700.66;5116776;27;20039;-73
2022/07/31 06:39:28;;;;;;;20.25;8.75;;;;;;;18.89;100.00;101695.94;5116786;28;20034;-73
2022/07/31 06:41:53;;;;;;;22.15;7.93;;;;;;;18.91;100.00;101696.59;5116757;28;20036;-73
2022/07/31 06:44:19;;;;;;;19.10;8.27;;;;;;;18.96;100.00;101687.97;5117194;28;20500;-73
2022/07/31 06:46:48;;;;;;;18.10;8.65;;;;;;;19.05;100.00;101694.19;5115017;28;20024;-74
2022/07/31 06:49:13;;;;;;;24.52;9.30;;;;;;;19.08;100.00;101705.47;5116101;28;20028;-74
2022/07/31 06:51:39;;;;;;;18.20;9.30;;;;;;;19.12;100.00;101701.44;5116833;28;20038;-73
2022/07/31 06:54:06;;;;;;;16.83;8.40;;;;;;;19.13;100.00;101700.38;5116418;28;20036;-73
2022/07/31 06:56:33;;;;;;;19.58;8.93;;;;;;;19.12;100.00;101698.72;5116539;28;20027;-74
2022/07/31 06:58:59;;;;;;;28.85;9.63;;;;;;;19.14;100.00;101701.25;5116420;28;20027;-74
2022/07/31 07:01:25;;;;;;;19.90;8.82;;;;;;;19.10;100.00;101708.00;5115852;28;20062;-73
2022/07/31 07:03:50;;;;;;;18.30;8.95;;;;;;;19.10;100.00;101700.75;5116710;28;20045;-73
2022/07/31 07:06:16;;;;;;;24.38;9.15;;;;;;;19.08;100.00;101707.31;5116150;28;20495;-74
2022/07/31 07:08:42;;;;;;;20.67;8.20;;;;;;;19.05;100.00;101702.28;5116148;28;20525;-73
2022/07/31 07:11:07;;;;;;;28.20;9.20;;;;;;;18.97;100.00;101701.31;5116033;28;20023;-73
2022/07/31 07:13:32;;;;;;;20.85;8.85;;;;;;;18.99;100.00;101704.66;5116125;28;20031;-73
2022/07/31 07:15:58;;;;;;;18.92;8.45;;;;;;;18.97;100.00;101692.34;5115346;28;20059;-74
2022/07/31 07:18:23;;;;;;;20.92;8.90;;;;;;;18.93;100.00;101699.97;5116073;27;20032;-74
2022/07/31 07:20:49;;;;;;;18.60;8.82;;;;;;;18.89;100.00;101697.78;5115988;28;20392;-74
2022/07/31 07:23:14;;;;;;;17.88;9.75;;;;;;;18.85;100.00;101690.06;5114575;28;20380;-75
2022/07/31 07:25:40;;;;;;;23.05;9.68;;;;;;;18.78;100.00;101696.25;5116225;28;20474;-75
2022/07/31 07:28:06;;;;;;;27.40;9.93;;;;;;;18.72;100.00;101689.72;5116076;28;20030;-76
2022/07/31 07:30:32;;;;;;;29.98;11.27;;;;;;;18.66;100.00;101693.06;5115207;28;20140;-75
2022/07/31 07:32:58;;;;;;;20.67;10.57;;;;;;;18.63;100.00;101688.03;5114848;28;20031;-78
2022/07/31 07:35:24;;;;;;;25.30;11.07;;;;;;;18.57;100.00;101688.72;5114462;28;20051;-75
2022/07/31 07:37:51;;;;;;;33.47;11.02;;;;;;;18.55;100.00;101688.06;5115724;28;20035;-75
2022/07/31 07:40:17;;;;;;;19.05;10.18;;;;;;;18.59;100.00;101684.84;5115599;28;20032;-76
2022/07/31 07:42:43;;;;;;;21.05;10.32;;;;;;;18.70;100.00;101694.41;5115558;28;20031;-76
2022/07/31 07:45:09;;;;;;;21.00;9.88;;;;;;;18.85;100.00;101694.56;5115556;28;20548;-77
2022/07/31 07:47:35;;;;;;;27.25;10.40;;;;;;;18.93;100.00;101686.50;5114763;28;20034;-74
2022/07/31 07:50:00;;;;;;;24.58;10.18;;;;;;;18.95;100.00;101689.00;5115427;28;20114;-75
2022/07/31 07:52:25;;;;;;;22.15;10.23;;;;;;;18.99;100.00;101680.38;5115096;28;20093;-73
2022/07/31 07:54:51;;;;;;;19.88;10.10;;;;;;;19.02;100.00;101682.75;5114620;28;20028;-74
2022/07/31 07:57:18;;;;;;;21.90;9.88;;;;;;;18.98;100.00;101685.97;5116107;28;20436;-74
2022/07/31 07:59:43;;;;;;;23.65;9.95;;;;;;;18.96;100.00;101683.44;5114710;28;20039;-76
2022/07/31 08:02:11;;;;;;;22.52;10.25;;;;;;;18.95;100.00;101683.63;5114703;28;20032;-75
2022/07/31 08:04:36;;;;;;;21.98;10.55;;;;;;;18.98;100.00;101685.97;5115024;28;20055;-77
2022/07/31 08:07:02;;;;;;;20.40;9.70;;;;;;;19.06;100.00;101679.69;5114969;28;20059;-73
2022/07/31 08:09:29;;;;;;;22.23;10.00;;;;;;;19.20;100.00;101674.41;5114768;28;20098;-75
2022/07/31 08:11:54;;;;;;;21.75;9.35;;;;;;;19.34;100.00;101674.66;5114389;28;20036;-73
2022/07/31 08:14:20;;;;;;;23.88;9.30;;;;;;;19.50;100.00;101673.75;5114229;28;20024;-73
2022/07/31 08:16:45;;;;;;;19.67;9.35;;;;;;;19.66;100.00;101675.47;5114758;28;20529;-73
2022/07/31 08:19:10;;;;;;;14.80;8.70;;;;;;;19.76;100.00;101662.59;5114393;28;20035;-73
2022/07/31 08:21:36;;;;;;;18.02;9.30;;;;;;;19.77;100.00;101671.56;5113472;28;20032;-74
2022/07/31 08:24:02;;;;;;;21.45;8.80;;;;;;;19.87;100.00;101675.72;5114475;28;20059;-74
2022/07/31 08:27:22;;;;;;;23.77;8.77;;;;;;;19.97;100.00;101675.47;5114347;28;20042;-74
2022/07/31 08:29:13;;;;;;;16.90;8.05;;;;;;;20.07;100.00;101667.94;5113037;28;20162;-75
2022/07/31 08:31:38;;;;;;;17.92;8.10;;;;;;;20.12;100.00;101662.00;5114267;28;20118;-73
2022/07/31 08:34:04;;;;;;;27.63;7.60;;;;;;;20.13;100.00;101669.09;5114324;28;20120;-73
2022/07/31 08:36:29;;;;;;;17.95;7.75;;;;;;;20.02;100.00;101662.25;5112831;28;20392;-73
2022/07/31 08:38:54;;;;;;;18.20;8.50;;;;;;;19.96;100.00;101660.28;5114283;28;20031;-74
2022/07/31 08:41:20;;;;;;;18.70;6.75;;;;;;;19.80;100.00;101668.53;5113552;28;20024;-74
2022/07/31 08:43:45;;;;;;;16.05;8.07;;;;;;;19.62;100.00;101666.09;5113722;28;20047;-76
2022/07/31 08:46:12;;;;;;;20.75;9.05;;;;;;;19.43;100.00;101668.19;5113980;28;20521;-74
2022/07/31 08:48:40;;;;;;;17.90;9.05;;;;;;;19.24;100.00;101664.09;5114045;28;20077;-74
2022/07/31 08:51:09;;;;;;;18.40;9.23;;;;;;;19.04;100.00;101669.06;5114000;28;20426;-72
2022/07/31 08:53:36;;;;;;;19.35;9.82;;;;;;;18.99;100.00;101671.47;5113964;28;20031;-74
2022/07/31 08:56:04;;;;;;;26.42;10.80;;;;;;;18.90;100.00;101678.75;5113505;28;20385;-73
2022/07/31 08:58:29;;;;;;;17.30;10.45;;;;;;;18.84;100.00;101682.09;5112868;28;20027;-73
2022/07/31 09:00:55;;;;;;;23.95;10.95;;;;;;;18.79;100.00;101674.50;5112842;28;20407;-74
2022/07/31 09:03:21;;;;;;;16.50;10.95;;;;;;;18.84;100.00;101676.72;5113357;28;20061;-73
2022/07/31 09:05:46;;;;;;;24.20;11.38;;;;;;;18.87;100.00;101680.94;5113824;28;20115;-73
2022/07/31 09:08:12;;;;;;;32.33;12.20;;;;;;;18.85;100.00;101676.56;5113346;28;20081;-73
2022/07/31 09:10:37;;;;;;;22.25;12.48;;;;;;;18.90;100.00;101675.19;5114222;28;20106;-77
2022/07/31 09:13:12;;;;;;;23.85;12.68;;;;;;;18.92;100.00;101674.00;5113394;28;20063;-74
2022/07/31 09:15:38;;;;;;;24.17;12.57;;;;;;;18.88;100.00;101664.59;5113487;28;20047;-74
2022/07/31 09:18:20;;;;;;;23.05;12.77;;;;;;;18.87;100.00;101671.00;5113478;28;20032;-73
2022/07/31 09:20:54;;;;;;;24.08;13.68;;;;;;;18.87;100.00;101664.75;5113825;28;20420;-73
2022/07/31 09:23:21;;;;;;;23.15;13.27;;;;;;;18.83;100.00;101669.63;5113419;28;20027;-72
2022/07/31 09:26:14;;;;;;;23.98;13.70;;;;;;;18.78;100.00;101669.28;5113605;28;20032;-74
2022/07/31 09:28:42;;;;;;;27.63;14.82;;;;;;;18.74;100.00;101662.59;5110459;28;20078;-73
2022/07/31 09:31:09;;;;;;;31.15;15.00;;;;;;;18.70;100.00;101667.47;5113297;28;20110;-74
2022/07/31 09:33:38;;;;;;;26.58;15.05;;;;;;;18.72;100.00;101665.47;5113352;28;20074;-72
2022/07/31 09:36:04;;;;;;;25.05;15.85;;;;;;;18.74;100.00;101673.38;5113565;28;20067;-72
2022/07/31 09:38:36;;;;;;;25.67;13.98;;;;;;;18.67;100.00;101673.22;5113216;28;20028;-76
2022/07/31 09:41:13;;;;;;;23.50;14.43;;;;;;;18.67;100.00;101671.38;5113237;28;20123;-75
2022/07/31 09:43:40;;;;;;;26.20;14.60;;;;;;;18.66;100.00;101675.06;5114140;28;20092;-74
2022/07/31 09:46:07;;;;;;;30.83;14.93;;;;;;;18.66;100.00;101660.72;5114096;28;20035;-76
2022/07/31 09:48:34;;;;;;;22.23;14.30;;;;;;;18.71;100.00;101668.34;5113670;28;20111;-80
2022/07/31 09:51:05;;;;;;;25.20;13.85;;;;;;;18.75;100.00;101670.50;5113611;28;20142;-81
2022/07/31 09:53:44;;;;;;;23.25;12.63;;;;;;;18.81;100.00;101668.94;5114775;28;20106;-77
2022/07/31 09:56:11;;;;;;;18.75;9.48;;;;;;;18.79;100.00;101671.00;5117527;28;20133;-79
2022/07/31 09:58:38;;;;;;;22.73;9.73;;;;;;;18.82;100.00;101673.34;5118163;28;20101;-77
2022/07/31 10:01:04;;;;;;;16.30;8.02;;;;;;;18.81;100.00;101666.25;5117473;28;20040;-78
2022/07/31 10:03:30;;;;;;;17.17;7.22;;;;;;;18.83;100.00;101677.72;5117812;28;20122;-79
2022/07/31 10:05:57;;;;;;;12.18;6.50;;;;;;;18.85;100.00;101675.69;5117531;28;20114;-79
2022/07/31 10:08:23;;;;;;;15.57;6.38;;;;;;;18.83;100.00;101672.31;5117190;28;20029;-84
2022/07/31 10:10:49;;;;;;;18.23;6.53;;;;;;;18.80;100.00;101670.81;5116165;28;20469;-81
2022/07/31 10:13:19;;;;;;;18.45;5.90;;;;;;;18.75;100.00;101670.50;5117346;28;20081;-81
2022/07/31 10:15:47;;;;;;;23.27;7.25;;;;;;;18.81;100.00;101675.19;5117011;28;20083;-80
2022/07/31 10:18:16;;;;;;;17.75;5.60;;;;;;;18.82;100.00;101674.19;5117551;28;20116;-80
2022/07/31 10:20:48;;;;;;;16.25;6.05;;;;;;;18.85;100.00;101671.19;5121008;28;20102;-80
2022/07/31 10:23:15;;;;;;;18.10;5.78;;;;;;;18.88;100.00;101675.38;5116294;28;20377;-77
2022/07/31 10:25:47;;;;;;;17.10;5.65;;;;;;;18.94;100.00;101669.28;5115667;28;20084;-83
2022/07/31 10:28:13;;;;;;;18.38;5.85;;;;;;;18.95;100.00;101662.03;5116658;28;20399;-82
2022/07/31 10:30:38;;;;;;;16.42;5.13;;;;;;;18.96;100.00;101669.09;5117076;28;20042;-81
2022/07/31 10:33:05;;;;;;;18.83;6.18;;;;;;;18.97;100.00;101665.41;5115885;28;20426;-83
2022/07/31 10:35:31;;;;;;;17.40;5.10;;;;;;;19.02;100.00;101657.63;5116947;28;20059;-79
2022/07/31 10:38:11;;;;;;;15.25;5.03;;;;;;;19.06;100.00;101656.25;5117142;28;20473;-85
2022/07/31 10:40:48;;;;;;;11.77;4.50;;;;;;;19.13;100.00;101656.41;5116617;28;20028;-82
2022/07/31 10:43:35;;;;;;;12.98;4.57;;;;;;;19.16;100.00;101658.75;5116898;28;20139;-85
2022/07/31 10:46:01;;;;;;;15.45;5.53;;;;;;;19.16;100.00;101654.19;5116728;28;20027;-82
2022/07/31 10:48:27;;;;;;;15.18;4.38;;;;;;;19.05;100.00;101653.72;5116585;28;20073;-84
2022/07/31 10:51:07;;;;;;;13.23;3.95;;;;;;;18.99;100.00;101656.13;5116182;28;20032;-86
2022/07/31 10:53:33;;;;;;;11.75;4.80;;;;;;;18.92;100.00;101665.91;5117215;28;20078;-84
2022/07/31 10:56:03;;;;;;;14.25;5.15;;;;;;;18.90;100.00;101659.88;5116686;28;20071;-83
2022/07/31 10:58:29;;;;;;;10.53;5.23;;;;;;;18.89;100.00;101655.47;5116046;28;20024;-84
2022/07/31 11:01:08;;;;;;;11.07;5.20;;;;;;;18.92;100.00;101663.22;5123177;28;20176;-83
2022/07/31 11:03:45;;;;;;;13.98;5.20;;;;;;;18.93;100.00;101654.13;5116619;28;20499;-78
2022/07/31 11:06:14;;;;;;;13.70;5.47;;;;;;;18.98;100.00;101659.81;5114061;28;20031;-78
2022/07/31 11:08:46;;;;;;;14.10;4.95;;;;;;;19.09;100.00;101653.19;5116941;28;20080;-78
2022/07/31 11:11:12;;;;;;;14.65;5.38;;;;;;;19.30;100.00;101652.63;5115986;28;20050;-77